sensor_id;sensor_type;location;lat;lon;timestamp;pressure;altitude;pressure_sealevel;temperature;humidity
61769;BME280;47669;48.712;9.016;2023-07-13T00:00:10;96588.13;;;17.69;61.66
61769;BME280;47669;48.712;9.016;2023-07-13T00:02:36;96588.75;;;17.82;61.64
61769;BME280;47669;48.712;9.016;2023-07-13T00:05:01;96589.94;;;17.64;61.48
61769;BME280;47669;48.712;9.016;2023-07-13T00:07:26;96590.41;;;17.28;63.00
61769;BME280;47669;48.712;9.016;2023-07-13T00:09:52;96588.91;;;17.11;64.01
61769;BME280;47669;48.712;9.016;2023-07-13T00:12:27;96587.59;;;17.67;60.29
61769;BME280;47669;48.712;9.016;2023-07-13T00:14:56;96583.50;;;17.60;61.24
61769;BME280;47669;48.712;9.016;2023-07-13T00:17:21;96583.16;;;17.24;63.18
61769;BME280;47669;48.712;9.016;2023-07-13T00:19:46;96580.97;;;17.48;62.66
61769;BME280;47669;48.712;9.016;2023-07-13T00:22:12;96582.53;;;17.44;61.75
61769;BME280;47669;48.712;9.016;2023-07-13T00:24:37;96584.75;;;17.52;62.27
61769;BME280;47669;48.712;9.016;2023-07-13T00:27:07;96587.03;;;17.11;63.98
61769;BME280;47669;48.712;9.016;2023-07-13T00:29:33;96581.56;;;16.57;66.34
61769;BME280;47669;48.712;9.016;2023-07-13T00:31:59;96583.44;;;16.56;65.56
61769;BME280;47669;48.712;9.016;2023-07-13T00:34:24;96571.78;;;17.34;64.22
61769;BME280;47669;48.712;9.016;2023-07-13T00:36:49;96569.84;;;16.80;64.84
61769;BME280;47669;48.712;9.016;2023-07-13T00:39:14;96574.19;;;16.42;68.02
61769;BME280;47669;48.712;9.016;2023-07-13T00:41:40;96576.94;;;16.47;67.60
61769;BME280;47669;48.712;9.016;2023-07-13T00:44:12;96587.81;;;16.23;67.74
61769;BME280;47669;48.712;9.016;2023-07-13T00:46:38;96587.03;;;16.67;66.58
61769;BME280;47669;48.712;9.016;2023-07-13T00:49:06;96595.00;;;16.84;65.60
61769;BME280;47669;48.712;9.016;2023-07-13T00:51:37;96600.09;;;16.46;67.21
61769;BME280;47669;48.712;9.016;2023-07-13T00:54:07;96590.88;;;16.54;65.95
61769;BME280;47669;48.712;9.016;2023-07-13T00:56:35;96595.78;;;16.62;66.21
61769;BME280;47669;48.712;9.016;2023-07-13T00:59:03;96596.50;;;16.36;67.89
61769;BME280;47669;48.712;9.016;2023-07-13T01:04:13;96602.38;;;16.77;66.21
61769;BME280;47669;48.712;9.016;2023-07-13T01:06:40;96595.13;;;16.94;64.07
61769;BME280;47669;48.712;9.016;2023-07-13T01:09:07;96595.03;;;16.67;67.01
61769;BME280;47669;48.712;9.016;2023-07-13T01:11:33;96597.97;;;17.09;63.66
61769;BME280;47669;48.712;9.016;2023-07-13T01:14:00;96598.59;;;16.95;64.98
61769;BME280;47669;48.712;9.016;2023-07-13T01:16:29;96601.97;;;16.85;66.05
61769;BME280;47669;48.712;9.016;2023-07-13T01:18:56;96595.19;;;16.77;67.25
61769;BME280;47669;48.712;9.016;2023-07-13T01:21:27;96606.78;;;16.66;67.40
61769;BME280;47669;48.712;9.016;2023-07-13T01:23:53;96612.41;;;16.47;67.65
61769;BME280;47669;48.712;9.016;2023-07-13T01:26:18;96608.13;;;16.85;63.51
61769;BME280;47669;48.712;9.016;2023-07-13T01:28:44;96598.47;;;16.62;65.27
61769;BME280;47669;48.712;9.016;2023-07-13T01:31:10;96600.16;;;16.29;67.18
61769;BME280;47669;48.712;9.016;2023-07-13T01:33:37;96593.88;;;16.58;67.09
61769;BME280;47669;48.712;9.016;2023-07-13T01:36:03;96592.75;;;16.15;67.55
61769;BME280;47669;48.712;9.016;2023-07-13T01:38:28;96593.97;;;16.46;66.78
61769;BME280;47669;48.712;9.016;2023-07-13T01:40:54;96593.69;;;16.25;66.14
61769;BME280;47669;48.712;9.016;2023-07-13T01:43:20;96600.50;;;15.99;68.18
61769;BME280;47669;48.712;9.016;2023-07-13T01:45:46;96608.16;;;16.29;66.42
61769;BME280;47669;48.712;9.016;2023-07-13T01:48:12;96606.34;;;16.13;67.69
61769;BME280;47669;48.712;9.016;2023-07-13T01:50:38;96610.88;;;16.52;64.36
61769;BME280;47669;48.712;9.016;2023-07-13T01:53:04;96591.53;;;16.44;65.13
61769;BME280;47669;48.712;9.016;2023-07-13T01:55:30;96593.97;;;16.46;65.98
61769;BME280;47669;48.712;9.016;2023-07-13T01:57:55;96596.69;;;16.29;65.09
61769;BME280;47669;48.712;9.016;2023-07-13T02:00:21;96603.34;;;16.10;65.73
61769;BME280;47669;48.712;9.016;2023-07-13T02:02:46;96602.53;;;16.09;65.78
61769;BME280;47669;48.712;9.016;2023-07-13T02:05:12;96599.66;;;16.33;64.05
61769;BME280;47669;48.712;9.016;2023-07-13T02:07:38;96600.44;;;16.50;63.74
61769;BME280;47669;48.712;9.016;2023-07-13T02:10:05;96602.09;;;16.34;61.93
61769;BME280;47669;48.712;9.016;2023-07-13T02:12:31;96603.66;;;16.52;62.32
61769;BME280;47669;48.712;9.016;2023-07-13T02:14:56;96605.84;;;15.82;65.34
61769;BME280;47669;48.712;9.016;2023-07-13T02:17:22;96607.94;;;15.97;65.25
61769;BME280;47669;48.712;9.016;2023-07-13T02:19:47;96606.94;;;15.70;66.33
61769;BME280;47669;48.712;9.016;2023-07-13T02:22:12;96613.47;;;15.62;66.56
61769;BME280;47669;48.712;9.016;2023-07-13T02:24:37;96616.69;;;15.47;68.67
61769;BME280;47669;48.712;9.016;2023-07-13T02:27:03;96612.34;;;15.41;67.54
61769;BME280;47669;48.712;9.016;2023-07-13T02:29:29;96614.09;;;15.35;67.55
61769;BME280;47669;48.712;9.016;2023-07-13T02:31:54;96613.81;;;15.65;66.03
61769;BME280;47669;48.712;9.016;2023-07-13T02:34:19;96615.94;;;15.35;68.97
61769;BME280;47669;48.712;9.016;2023-07-13T02:36:45;96614.09;;;15.35;68.46
61769;BME280;47669;48.712;9.016;2023-07-13T02:39:11;96618.19;;;15.43;68.50
61769;BME280;47669;48.712;9.016;2023-07-13T02:41:36;96625.84;;;15.22;69.04
61769;BME280;47669;48.712;9.016;2023-07-13T02:44:02;96619.84;;;15.15;69.87
61769;BME280;47669;48.712;9.016;2023-07-13T02:46:36;96617.09;;;15.10;68.96
61769;BME280;47669;48.712;9.016;2023-07-13T02:49:03;96627.78;;;15.27;69.56
61769;BME280;47669;48.712;9.016;2023-07-13T02:51:29;96625.38;;;14.85;71.12
61769;BME280;47669;48.712;9.016;2023-07-13T02:53:54;96631.41;;;14.69;71.82
61769;BME280;47669;48.712;9.016;2023-07-13T02:56:23;96636.16;;;14.78;71.43
61769;BME280;47669;48.712;9.016;2023-07-13T02:58:48;96631.63;;;14.79;71.00
61769;BME280;47669;48.712;9.016;2023-07-13T03:01:13;96636.88;;;14.74;70.78
61769;BME280;47669;48.712;9.016;2023-07-13T03:03:47;96628.91;;;14.62;71.30
61769;BME280;47669;48.712;9.016;2023-07-13T03:06:13;96622.19;;;15.12;70.87
61769;BME280;47669;48.712;9.016;2023-07-13T03:08:39;96630.25;;;15.17;69.47
61769;BME280;47669;48.712;9.016;2023-07-13T03:11:07;96631.78;;;14.72;71.89
61769;BME280;47669;48.712;9.016;2023-07-13T03:13:33;96630.84;;;14.66;72.11
61769;BME280;47669;48.712;9.016;2023-07-13T03:15:59;96635.63;;;15.05;70.22
61769;BME280;47669;48.712;9.016;2023-07-13T03:18:26;96636.44;;;15.05;69.73
61769;BME280;47669;48.712;9.016;2023-07-13T03:20:51;96631.13;;;14.94;71.16
61769;BME280;47669;48.712;9.016;2023-07-13T03:23:17;96639.41;;;14.80;72.14
61769;BME280;47669;48.712;9.016;2023-07-13T03:25:43;96642.41;;;15.13;72.27
61769;BME280;47669;48.712;9.016;2023-07-13T03:28:10;96649.91;;;14.87;71.77
61769;BME280;47669;48.712;9.016;2023-07-13T03:30:35;96645.50;;;14.93;72.11
61769;BME280;47669;48.712;9.016;2023-07-13T03:33:01;96641.06;;;14.98;71.80
61769;BME280;47669;48.712;9.016;2023-07-13T03:35:26;96655.13;;;14.82;72.54
61769;BME280;47669;48.712;9.016;2023-07-13T03:37:51;96664.56;;;15.01;72.71
61769;BME280;47669;48.712;9.016;2023-07-13T03:40:17;96661.22;;;14.94;71.91
61769;BME280;47669;48.712;9.016;2023-07-13T03:42:42;96665.53;;;15.24;72.00
61769;BME280;47669;48.712;9.016;2023-07-13T03:45:08;96662.00;;;15.06;71.69
61769;BME280;47669;48.712;9.016;2023-07-13T03:47:33;96668.25;;;15.00;72.47
61769;BME280;47669;48.712;9.016;2023-07-13T03:49:58;96664.88;;;15.45;71.44
61769;BME280;47669;48.712;9.016;2023-07-13T03:52:23;96668.47;;;15.68;69.22
61769;BME280;47669;48.712;9.016;2023-07-13T03:54:49;96668.31;;;15.58;69.94
61769;BME280;47669;48.712;9.016;2023-07-13T03:57:14;96672.78;;;15.57;70.82
61769;BME280;47669;48.712;9.016;2023-07-13T03:59:39;96672.38;;;15.48;70.62
61769;BME280;47669;48.712;9.016;2023-07-13T04:02:05;96674.69;;;15.45;70.66
61769;BME280;47669;48.712;9.016;2023-07-13T04:04:30;96678.91;;;15.41;71.11
61769;BME280;47669;48.712;9.016;2023-07-13T04:06:57;96673.19;;;15.49;71.98
61769;BME280;47669;48.712;9.016;2023-07-13T04:09:24;96677.66;;;15.32;72.74
61769;BME280;47669;48.712;9.016;2023-07-13T04:11:49;96672.56;;;15.59;71.92
61769;BME280;47669;48.712;9.016;2023-07-13T04:14:14;96678.31;;;15.67;72.11
61769;BME280;47669;48.712;9.016;2023-07-13T04:16:39;96676.25;;;15.41;72.05
61769;BME280;47669;48.712;9.016;2023-07-13T04:19:05;96683.56;;;15.34;72.00
61769;BME280;47669;48.712;9.016;2023-07-13T04:21:31;96683.31;;;15.35;72.84
61769;BME280;47669;48.712;9.016;2023-07-13T04:23:56;96693.06;;;15.30;72.77
61769;BME280;47669;48.712;9.016;2023-07-13T04:26:22;96695.06;;;15.22;73.57
61769;BME280;47669;48.712;9.016;2023-07-13T04:28:49;96692.22;;;15.41;71.42
61769;BME280;47669;48.712;9.016;2023-07-13T04:31:15;96691.19;;;15.30;72.84
61769;BME280;47669;48.712;9.016;2023-07-13T04:33:41;96692.13;;;15.64;70.48
61769;BME280;47669;48.712;9.016;2023-07-13T04:36:08;96695.84;;;14.82;73.66
61769;BME280;47669;48.712;9.016;2023-07-13T04:38:35;96693.44;;;14.69;74.53
61769;BME280;47669;48.712;9.016;2023-07-13T04:41:02;96689.94;;;14.69;74.58
61769;BME280;47669;48.712;9.016;2023-07-13T04:43:29;96683.22;;;14.90;73.85
61769;BME280;47669;48.712;9.016;2023-07-13T04:45:54;96698.06;;;14.74;74.31
61769;BME280;47669;48.712;9.016;2023-07-13T04:48:20;96694.22;;;14.58;76.22
61769;BME280;47669;48.712;9.016;2023-07-13T04:50:46;96695.28;;;14.57;76.59
61769;BME280;47669;48.712;9.016;2023-07-13T04:53:12;96700.59;;;14.57;76.90
61769;BME280;47669;48.712;9.016;2023-07-13T04:55:38;96704.41;;;14.84;75.46
61769;BME280;47669;48.712;9.016;2023-07-13T04:58:03;96714.47;;;14.82;75.41
61769;BME280;47669;48.712;9.016;2023-07-13T05:00:30;96708.53;;;15.04;75.30
61769;BME280;47669;48.712;9.016;2023-07-13T05:02:57;96706.53;;;15.11;74.58
61769;BME280;47669;48.712;9.016;2023-07-13T05:05:24;96705.53;;;15.41;74.23
61769;BME280;47669;48.712;9.016;2023-07-13T05:07:49;96707.88;;;15.37;73.29
61769;BME280;47669;48.712;9.016;2023-07-13T05:10:15;96710.53;;;15.37;74.46
61769;BME280;47669;48.712;9.016;2023-07-13T05:12:40;96710.97;;;15.46;73.33
61769;BME280;47669;48.712;9.016;2023-07-13T05:15:06;96707.59;;;15.79;73.77
61769;BME280;47669;48.712;9.016;2023-07-13T05:17:32;96704.25;;;15.72;70.87
61769;BME280;47669;48.712;9.016;2023-07-13T05:19:57;96705.75;;;15.80;71.86
61769;BME280;47669;48.712;9.016;2023-07-13T05:22:22;96702.31;;;15.96;71.57
61769;BME280;47669;48.712;9.016;2023-07-13T05:24:48;96708.63;;;16.24;70.08
61769;BME280;47669;48.712;9.016;2023-07-13T05:27:13;96717.41;;;16.07;70.62
61769;BME280;47669;48.712;9.016;2023-07-13T05:29:38;96715.69;;;16.01;69.37
61769;BME280;47669;48.712;9.016;2023-07-13T05:32:04;96717.06;;;16.04;69.34
61769;BME280;47669;48.712;9.016;2023-07-13T05:34:29;96710.03;;;16.15;69.28
61769;BME280;47669;48.712;9.016;2023-07-13T05:36:54;96712.25;;;16.18;70.72
61769;BME280;47669;48.712;9.016;2023-07-13T05:39:20;96722.25;;;16.11;70.98
61769;BME280;47669;48.712;9.016;2023-07-13T05:41:45;96714.50;;;16.26;71.45
61769;BME280;47669;48.712;9.016;2023-07-13T05:44:10;96715.16;;;16.33;72.20
61769;BME280;47669;48.712;9.016;2023-07-13T05:46:36;96716.69;;;16.29;70.41
61769;BME280;47669;48.712;9.016;2023-07-13T05:49:01;96720.66;;;16.26;71.22
61769;BME280;47669;48.712;9.016;2023-07-13T05:51:27;96720.16;;;16.46;70.83
61769;BME280;47669;48.712;9.016;2023-07-13T05:53:52;96717.91;;;16.55;71.89
61769;BME280;47669;48.712;9.016;2023-07-13T05:56:17;96721.75;;;16.64;71.37
61769;BME280;47669;48.712;9.016;2023-07-13T05:58:42;96724.84;;;16.56;63.69
61769;BME280;47669;48.712;9.016;2023-07-13T06:01:13;96732.59;;;16.92;63.01
61769;BME280;47669;48.712;9.016;2023-07-13T06:03:38;96734.78;;;17.17;62.63
61769;BME280;47669;48.712;9.016;2023-07-13T06:06:05;96738.94;;;17.52;60.01
61769;BME280;47669;48.712;9.016;2023-07-13T06:08:31;96741.91;;;17.55;59.76
61769;BME280;47669;48.712;9.016;2023-07-13T06:11:15;96731.13;;;17.94;58.22
61769;BME280;47669;48.712;9.016;2023-07-13T06:13:40;96737.69;;;17.59;56.35
61769;BME280;47669;48.712;9.016;2023-07-13T06:16:06;96743.72;;;17.72;56.19
61769;BME280;47669;48.712;9.016;2023-07-13T06:18:33;96745.94;;;17.58;54.79
61769;BME280;47669;48.712;9.016;2023-07-13T06:20:58;96752.81;;;17.76;54.49
61769;BME280;47669;48.712;9.016;2023-07-13T06:23:24;96749.91;;;17.99;54.73
61769;BME280;47669;48.712;9.016;2023-07-13T06:25:49;96752.00;;;18.57;53.98
61769;BME280;47669;48.712;9.016;2023-07-13T06:28:15;96756.50;;;18.56;52.90
61769;BME280;47669;48.712;9.016;2023-07-13T06:30:40;96762.28;;;18.10;53.89
61769;BME280;47669;48.712;9.016;2023-07-13T06:33:05;96761.28;;;17.89;54.29
61769;BME280;47669;48.712;9.016;2023-07-13T06:35:31;96767.56;;;17.78;54.63
61769;BME280;47669;48.712;9.016;2023-07-13T06:37:56;96759.41;;;18.17;54.00
61769;BME280;47669;48.712;9.016;2023-07-13T06:40:21;96758.66;;;18.22;52.94
61769;BME280;47669;48.712;9.016;2023-07-13T06:42:46;96753.25;;;18.49;52.69
61769;BME280;47669;48.712;9.016;2023-07-13T06:45:12;96765.09;;;18.58;51.97
61769;BME280;47669;48.712;9.016;2023-07-13T06:47:37;96765.69;;;18.65;52.27
61769;BME280;47669;48.712;9.016;2023-07-13T06:50:02;96767.78;;;18.96;50.79
61769;BME280;47669;48.712;9.016;2023-07-13T06:52:28;96762.81;;;18.77;50.66
61769;BME280;47669;48.712;9.016;2023-07-13T06:54:53;96763.47;;;18.89;50.07
61769;BME280;47669;48.712;9.016;2023-07-13T06:57:18;96764.81;;;19.35;49.34
61769;BME280;47669;48.712;9.016;2023-07-13T06:59:44;96766.84;;;19.17;49.89
61769;BME280;47669;48.712;9.016;2023-07-13T07:02:10;96765.66;;;19.45;49.79
61769;BME280;47669;48.712;9.016;2023-07-13T07:04:36;96767.16;;;19.84;50.35
61769;BME280;47669;48.712;9.016;2023-07-13T07:07:02;96775.41;;;19.14;48.71
61769;BME280;47669;48.712;9.016;2023-07-13T07:09:28;96772.00;;;19.34;48.10
61769;BME280;47669;48.712;9.016;2023-07-13T07:11:55;96772.88;;;19.45;48.32
61769;BME280;47669;48.712;9.016;2023-07-13T07:14:20;96776.28;;;19.30;48.73
61769;BME280;47669;48.712;9.016;2023-07-13T07:16:45;96771.97;;;19.24;47.93
61769;BME280;47669;48.712;9.016;2023-07-13T07:19:11;96771.03;;;19.50;47.37
61769;BME280;47669;48.712;9.016;2023-07-13T07:21:36;96774.03;;;19.69;45.98
61769;BME280;47669;48.712;9.016;2023-07-13T07:24:01;96766.91;;;20.01;45.10
61769;BME280;47669;48.712;9.016;2023-07-13T07:26:28;96774.09;;;19.85;45.07
61769;BME280;47669;48.712;9.016;2023-07-13T07:28:53;96767.72;;;20.17;44.95
61769;BME280;47669;48.712;9.016;2023-07-13T07:31:18;96771.75;;;20.19;44.15
61769;BME280;47669;48.712;9.016;2023-07-13T07:33:44;96760.78;;;20.31;44.79
61769;BME280;47669;48.712;9.016;2023-07-13T07:36:09;96761.78;;;19.84;45.10
61769;BME280;47669;48.712;9.016;2023-07-13T07:38:35;96761.50;;;19.85;45.54
61769;BME280;47669;48.712;9.016;2023-07-13T07:41:04;96757.31;;;20.66;45.28
61769;BME280;47669;48.712;9.016;2023-07-13T07:43:30;96765.41;;;19.52;45.15
61769;BME280;47669;48.712;9.016;2023-07-13T07:45:57;96770.91;;;19.93;44.52
61769;BME280;47669;48.712;9.016;2023-07-13T07:48:26;96781.72;;;20.39;44.80
61769;BME280;47669;48.712;9.016;2023-07-13T07:50:51;96769.41;;;20.59;45.11
61769;BME280;47669;48.712;9.016;2023-07-13T07:53:17;96761.75;;;21.32;44.66
61769;BME280;47669;48.712;9.016;2023-07-13T07:55:42;96757.69;;;21.35;44.91
61769;BME280;47669;48.712;9.016;2023-07-13T07:58:07;96761.19;;;21.51;44.61
61769;BME280;47669;48.712;9.016;2023-07-13T08:00:33;96776.56;;;21.20;41.58
61769;BME280;47669;48.712;9.016;2023-07-13T08:03:00;96785.53;;;20.64;41.19
61769;BME280;47669;48.712;9.016;2023-07-13T08:05:26;96780.41;;;20.72;41.97
61769;BME280;47669;48.712;9.016;2023-07-13T08:07:51;96771.47;;;21.88;40.23
61769;BME280;47669;48.712;9.016;2023-07-13T08:10:16;96772.31;;;22.28;40.96
61769;BME280;47669;48.712;9.016;2023-07-13T08:12:42;96782.28;;;20.77;39.69
61769;BME280;47669;48.712;9.016;2023-07-13T08:15:11;96775.41;;;21.41;40.67
61769;BME280;47669;48.712;9.016;2023-07-13T08:17:37;96776.78;;;21.44;41.31
61769;BME280;47669;48.712;9.016;2023-07-13T08:20:03;96773.56;;;21.37;41.90
61769;BME280;47669;48.712;9.016;2023-07-13T08:22:28;96764.38;;;21.58;41.38
61769;BME280;47669;48.712;9.016;2023-07-13T08:24:54;96778.75;;;20.97;40.92
61769;BME280;47669;48.712;9.016;2023-07-13T08:27:23;96772.34;;;20.88;40.22
61769;BME280;47669;48.712;9.016;2023-07-13T08:29:49;96770.41;;;21.19;42.23
61769;BME280;47669;48.712;9.016;2023-07-13T08:32:14;96768.75;;;21.28;40.57
61769;BME280;47669;48.712;9.016;2023-07-13T08:34:40;96766.84;;;21.29;40.28
61769;BME280;47669;48.712;9.016;2023-07-13T08:37:06;96762.13;;;22.20;42.26
61769;BME280;47669;48.712;9.016;2023-07-13T08:39:32;96765.03;;;22.34;42.73
61769;BME280;47669;48.712;9.016;2023-07-13T08:44:40;96774.81;;;22.25;40.77
61769;BME280;47669;48.712;9.016;2023-07-13T08:47:11;96768.69;;;22.48;37.25
61769;BME280;47669;48.712;9.016;2023-07-13T08:49:39;96773.69;;;22.65;41.44
61769;BME280;47669;48.712;9.016;2023-07-13T08:52:12;96767.50;;;21.75;40.25
61769;BME280;47669;48.712;9.016;2023-07-13T08:54:44;96762.03;;;21.96;43.32
61769;BME280;47669;48.712;9.016;2023-07-13T08:57:17;96773.00;;;21.55;40.32
61769;BME280;47669;48.712;9.016;2023-07-13T08:59:44;96771.13;;;21.35;41.17
61769;BME280;47669;48.712;9.016;2023-07-13T09:05:02;96775.16;;;21.53;39.86
61769;BME280;47669;48.712;9.016;2023-07-13T09:15:48;96770.91;;;22.75;37.03
61769;BME280;47669;48.712;9.016;2023-07-13T09:18:33;96764.81;;;23.66;35.97
61769;BME280;47669;48.712;9.016;2023-07-13T09:21:04;96777.72;;;22.92;35.62
61769;BME280;47669;48.712;9.016;2023-07-13T09:23:32;96782.56;;;22.26;41.40
61769;BME280;47669;48.712;9.016;2023-07-13T09:26:19;96779.16;;;22.84;39.28
61769;BME280;47669;48.712;9.016;2023-07-13T09:28:51;96784.72;;;22.29;39.13
61769;BME280;47669;48.712;9.016;2023-07-13T09:31:20;96781.59;;;21.57;40.48
61769;BME280;47669;48.712;9.016;2023-07-13T09:33:48;96782.09;;;21.64;40.53
61769;BME280;47669;48.712;9.016;2023-07-13T09:36:26;96774.25;;;21.78;40.79
61769;BME280;47669;48.712;9.016;2023-07-13T09:39:05;96775.31;;;22.61;39.18
61769;BME280;47669;48.712;9.016;2023-07-13T09:44:42;96766.56;;;23.33;39.23
61769;BME280;47669;48.712;9.016;2023-07-13T09:47:22;96771.66;;;23.58;39.20
61769;BME280;47669;48.712;9.016;2023-07-13T09:49:57;96777.75;;;23.45;37.01
61769;BME280;47669;48.712;9.016;2023-07-13T09:52:24;96772.00;;;23.76;36.38
61769;BME280;47669;48.712;9.016;2023-07-13T09:54:51;96773.44;;;22.91;36.28
61769;BME280;47669;48.712;9.016;2023-07-13T09:57:22;96774.06;;;23.60;35.87
61769;BME280;47669;48.712;9.016;2023-07-13T09:59:50;96765.88;;;23.22;38.85
61769;BME280;47669;48.712;9.016;2023-07-13T10:02:33;96758.16;;;23.34;37.54
61769;BME280;47669;48.712;9.016;2023-07-13T10:05:02;96766.41;;;23.24;37.33
61769;BME280;47669;48.712;9.016;2023-07-13T10:07:29;96766.63;;;23.52;35.42
61769;BME280;47669;48.712;9.016;2023-07-13T10:09:56;96761.00;;;23.91;38.81
61769;BME280;47669;48.712;9.016;2023-07-13T10:12:23;96766.16;;;23.45;35.53
61769;BME280;47669;48.712;9.016;2023-07-13T10:14:51;96763.69;;;24.10;34.92
61769;BME280;47669;48.712;9.016;2023-07-13T10:17:25;96770.19;;;24.28;35.34
61769;BME280;47669;48.712;9.016;2023-07-13T10:19:51;96766.94;;;23.69;34.76
61769;BME280;47669;48.712;9.016;2023-07-13T10:22:53;96770.06;;;23.09;35.32
61769;BME280;47669;48.712;9.016;2023-07-13T10:25:25;96774.28;;;23.88;36.16
61769;BME280;47669;48.712;9.016;2023-07-13T10:27:53;96775.66;;;24.04;36.80
61769;BME280;47669;48.712;9.016;2023-07-13T10:30:24;96758.06;;;23.45;35.12
61769;BME280;47669;48.712;9.016;2023-07-13T10:32:53;96773.91;;;23.03;39.76
61769;BME280;47669;48.712;9.016;2023-07-13T10:35:20;96779.84;;;22.66;37.67
61769;BME280;47669;48.712;9.016;2023-07-13T10:37:58;96774.38;;;22.76;37.46
61769;BME280;47669;48.712;9.016;2023-07-13T10:40:32;96776.94;;;22.91;37.18
61769;BME280;47669;48.712;9.016;2023-07-13T10:43:02;96768.81;;;22.96;36.06
61769;BME280;47669;48.712;9.016;2023-07-13T10:45:32;96762.22;;;23.37;39.90
61769;BME280;47669;48.712;9.016;2023-07-13T10:47:59;96771.66;;;23.34;36.53
61769;BME280;47669;48.712;9.016;2023-07-13T10:50:28;96775.66;;;23.61;36.09
61769;BME280;47669;48.712;9.016;2023-07-13T10:53:01;96780.72;;;22.90;35.67
61769;BME280;47669;48.712;9.016;2023-07-13T10:55:38;96770.25;;;23.18;37.98
61769;BME280;47669;48.712;9.016;2023-07-13T11:01:11;96762.63;;;23.68;37.76
61769;BME280;47669;48.712;9.016;2023-07-13T11:03:55;96767.19;;;24.30;36.48
61769;BME280;47669;48.712;9.016;2023-07-13T11:08:55;96766.88;;;23.02;39.17
61769;BME280;47669;48.712;9.016;2023-07-13T11:11:33;96759.03;;;23.78;35.82
61769;BME280;47669;48.712;9.016;2023-07-13T11:14:01;96755.25;;;23.55;36.16
61769;BME280;47669;48.712;9.016;2023-07-13T11:16:42;96748.84;;;24.46;36.69
61769;BME280;47669;48.712;9.016;2023-07-13T11:19:24;96748.66;;;24.04;38.14
61769;BME280;47669;48.712;9.016;2023-07-13T11:22:41;96744.38;;;24.22;37.88
61769;BME280;47669;48.712;9.016;2023-07-13T11:27:51;96738.91;;;23.46;37.02
61769;BME280;47669;48.712;9.016;2023-07-13T11:35:38;96738.84;;;25.39;32.83
61769;BME280;47669;48.712;9.016;2023-07-13T11:38:19;96727.91;;;26.54;31.75
61769;BME280;47669;48.712;9.016;2023-07-13T11:40:46;96736.38;;;25.79;32.17
61769;BME280;47669;48.712;9.016;2023-07-13T11:43:16;96725.91;;;25.23;32.26
61769;BME280;47669;48.712;9.016;2023-07-13T11:45:42;96733.69;;;24.50;36.95
61769;BME280;47669;48.712;9.016;2023-07-13T11:48:31;96736.00;;;23.62;36.06
61769;BME280;47669;48.712;9.016;2023-07-13T11:51:03;96740.91;;;23.35;37.20
61769;BME280;47669;48.712;9.016;2023-07-13T11:53:38;96742.31;;;23.33;36.82
61769;BME280;47669;48.712;9.016;2023-07-13T11:56:05;96741.00;;;24.30;34.47
61769;BME280;47669;48.712;9.016;2023-07-13T11:58:30;96744.41;;;24.55;32.92
61769;BME280;47669;48.712;9.016;2023-07-13T12:00:59;96741.28;;;24.94;32.70
61769;BME280;47669;48.712;9.016;2023-07-13T12:03:27;96744.25;;;25.26;32.58
61769;BME280;47669;48.712;9.016;2023-07-13T12:06:02;96743.06;;;24.01;36.14
61769;BME280;47669;48.712;9.016;2023-07-13T12:08:30;96729.88;;;25.67;33.09
61769;BME280;47669;48.712;9.016;2023-07-13T12:10:59;96736.28;;;25.02;36.51
61769;BME280;47669;48.712;9.016;2023-07-13T12:13:26;96744.88;;;23.86;35.27
61769;BME280;47669;48.712;9.016;2023-07-13T12:15:52;96743.09;;;23.09;35.31
61769;BME280;47669;48.712;9.016;2023-07-13T12:18:22;96745.63;;;22.95;36.16
61769;BME280;47669;48.712;9.016;2023-07-13T12:20:50;96744.22;;;24.51;33.72
61769;BME280;47669;48.712;9.016;2023-07-13T12:23:24;96738.66;;;25.86;33.19
61769;BME280;47669;48.712;9.016;2023-07-13T12:25:51;96736.19;;;25.90;33.23
61769;BME280;47669;48.712;9.016;2023-07-13T12:28:22;96731.66;;;25.21;31.74
61769;BME280;47669;48.712;9.016;2023-07-13T12:30:49;96738.97;;;23.84;34.33
61769;BME280;47669;48.712;9.016;2023-07-13T12:33:16;96746.28;;;24.22;35.40
61769;BME280;47669;48.712;9.016;2023-07-13T12:35:46;96739.41;;;24.10;33.92
61769;BME280;47669;48.712;9.016;2023-07-13T12:38:12;96742.63;;;24.12;34.20
61769;BME280;47669;48.712;9.016;2023-07-13T12:40:38;96746.22;;;25.06;32.80
61769;BME280;47669;48.712;9.016;2023-07-13T12:43:05;96738.84;;;25.39;35.74
61769;BME280;47669;48.712;9.016;2023-07-13T12:45:36;96743.66;;;24.68;33.93
61769;BME280;47669;48.712;9.016;2023-07-13T12:48:16;96738.69;;;24.05;34.37
61769;BME280;47669;48.712;9.016;2023-07-13T12:50:47;96735.63;;;23.92;34.76
61769;BME280;47669;48.712;9.016;2023-07-13T12:53:15;96730.88;;;24.03;33.52
61769;BME280;47669;48.712;9.016;2023-07-13T12:55:53;96735.56;;;24.82;36.38
61769;BME280;47669;48.712;9.016;2023-07-13T13:00:56;96729.84;;;25.30;31.18
61769;BME280;47669;48.712;9.016;2023-07-13T13:05:59;96731.44;;;26.54;32.74
61769;BME280;47669;48.712;9.016;2023-07-13T13:08:25;96712.22;;;27.27;31.67
61769;BME280;47669;48.712;9.016;2023-07-13T13:10:50;96715.25;;;26.63;32.08
61769;BME280;47669;48.712;9.016;2023-07-13T13:13:16;96727.03;;;25.86;30.97
61769;BME280;47669;48.712;9.016;2023-07-13T13:15:41;96714.06;;;26.33;30.62
61769;BME280;47669;48.712;9.016;2023-07-13T13:18:17;96716.03;;;27.26;28.89
61769;BME280;47669;48.712;9.016;2023-07-13T13:20:43;96720.03;;;25.85;30.20
61769;BME280;47669;48.712;9.016;2023-07-13T13:23:17;96711.66;;;26.54;29.34
61769;BME280;47669;48.712;9.016;2023-07-13T13:25:48;96715.47;;;26.75;29.88
61769;BME280;47669;48.712;9.016;2023-07-13T13:28:18;96721.66;;;25.16;30.72
61769;BME280;47669;48.712;9.016;2023-07-13T13:30:45;96721.66;;;25.16;30.67
61769;BME280;47669;48.712;9.016;2023-07-13T13:33:13;96711.59;;;26.45;29.46
61769;BME280;47669;48.712;9.016;2023-07-13T13:35:40;96717.06;;;27.08;29.96
61769;BME280;47669;48.712;9.016;2023-07-13T13:38:14;96711.47;;;27.53;26.73
61769;BME280;47669;48.712;9.016;2023-07-13T13:40:42;96713.09;;;27.54;26.63